sensor_id;sensor_type;location;lat;lon;timestamp;pressure;altitude;pressure_sealevel;temperature;humidity
10176;BME280;18221;38.704;0.152;2024-02-23T00:02:26;97962.69;;;22.25;28.13
10176;BME280;18221;38.704;0.152;2024-02-23T00:04:54;97956.13;;;22.21;28.28
10176;BME280;18221;38.704;0.152;2024-02-23T00:07:22;97961.88;;;22.24;28.68
10176;BME280;18221;38.704;0.152;2024-02-23T00:09:50;97965.66;;;22.23;29.26
10176;BME280;18221;38.704;0.152;2024-02-23T00:12:18;97965.41;;;22.25;29.56
10176;BME280;18221;38.704;0.152;2024-02-23T00:14:47;97974.09;;;22.27;29.58
10176;BME280;18221;38.704;0.152;2024-02-23T00:17:15;97968.38;;;22.11;30.02
10176;BME280;18221;38.704;0.152;2024-02-23T00:19:45;97965.44;;;22.13;30.21
10176;BME280;18221;38.704;0.152;2024-02-23T00:22:13;97967.78;;;21.98;30.54
10176;BME280;18221;38.704;0.152;2024-02-23T00:24:41;97958.38;;;22.00;30.47
10176;BME280;18221;38.704;0.152;2024-02-23T00:27:09;97958.28;;;22.07;30.25
10176;BME280;18221;38.704;0.152;2024-02-23T00:29:37;97948.53;;;21.83;30.47
10176;BME280;18221;38.704;0.152;2024-02-23T00:32:07;97938.91;;;21.75;30.49
10176;BME280;18221;38.704;0.152;2024-02-23T00:34:34;97942.66;;;21.63;30.53
10176;BME280;18221;38.704;0.152;2024-02-23T00:37:03;97949.00;;;21.57;30.92
10176;BME280;18221;38.704;0.152;2024-02-23T00:39:31;97952.66;;;21.62;31.06
10176;BME280;18221;38.704;0.152;2024-02-23T00:41:59;97950.78;;;21.63;30.90
10176;BME280;18221;38.704;0.152;2024-02-23T00:44:27;97939.13;;;21.62;30.79
10176;BME280;18221;38.704;0.152;2024-02-23T00:46:55;97935.38;;;21.51;30.66
10176;BME280;18221;38.704;0.152;2024-02-23T00:49:25;97922.59;;;21.24;30.91
10176;BME280;18221;38.704;0.152;2024-02-23T01:02:15;97908.13;;;21.41;30.93
10176;BME280;18221;38.704;0.152;2024-02-23T01:04:44;97905.69;;;21.17;30.26
10176;BME280;18221;38.704;0.152;2024-02-23T01:07:12;97909.19;;;21.29;29.76
10176;BME280;18221;38.704;0.152;2024-02-23T01:09:40;97885.25;;;21.21;29.92
10176;BME280;18221;38.704;0.152;2024-02-23T01:12:08;97898.72;;;21.09;30.05
10176;BME280;18221;38.704;0.152;2024-02-23T01:14:36;97911.25;;;21.04;30.29
10176;BME280;18221;38.704;0.152;2024-02-23T01:17:04;97914.38;;;21.19;29.63
10176;BME280;18221;38.704;0.152;2024-02-23T01:19:32;97905.56;;;21.12;30.00
10176;BME280;18221;38.704;0.152;2024-02-23T01:22:01;97882.16;;;21.06;30.24
10176;BME280;18221;38.704;0.152;2024-02-23T01:24:29;97844.34;;;20.94;31.43
10176;BME280;18221;38.704;0.152;2024-02-23T01:26:57;97881.56;;;21.04;31.33
10176;BME280;18221;38.704;0.152;2024-02-23T01:29:26;97884.00;;;20.93;31.87
10176;BME280;18221;38.704;0.152;2024-02-23T01:31:54;97899.22;;;21.18;31.87
10176;BME280;18221;38.704;0.152;2024-02-23T01:34:22;97894.03;;;21.28;31.65
10176;BME280;18221;38.704;0.152;2024-02-23T01:36:49;97905.19;;;21.20;31.81
10176;BME280;18221;38.704;0.152;2024-02-23T01:39:19;97872.97;;;20.83;32.70
10176;BME280;18221;38.704;0.152;2024-02-23T01:41:47;97866.81;;;21.06;32.09
10176;BME280;18221;38.704;0.152;2024-02-23T01:44:15;97872.56;;;21.10;32.48
10176;BME280;18221;38.704;0.152;2024-02-23T01:46:43;97879.69;;;21.04;33.07
10176;BME280;18221;38.704;0.152;2024-02-23T01:49:11;97882.88;;;21.13;33.10
10176;BME280;18221;38.704;0.152;2024-02-23T01:51:41;97869.00;;;20.98;33.72
10176;BME280;18221;38.704;0.152;2024-02-23T01:54:09;97884.50;;;20.90;33.95
10176;BME280;18221;38.704;0.152;2024-02-23T01:56:39;97880.59;;;20.86;34.04
10176;BME280;18221;38.704;0.152;2024-02-23T01:59:07;97889.34;;;20.70;34.47
10176;BME280;18221;38.704;0.152;2024-02-23T02:01:38;97887.94;;;20.56;35.53
10176;BME280;18221;38.704;0.152;2024-02-23T02:04:06;97880.88;;;20.55;35.96
10176;BME280;18221;38.704;0.152;2024-02-23T02:06:34;97874.91;;;20.23;37.10
10176;BME280;18221;38.704;0.152;2024-02-23T02:09:03;97877.09;;;19.97;37.59
10176;BME280;18221;38.704;0.152;2024-02-23T02:11:31;97868.66;;;19.93;38.26
10176;BME280;18221;38.704;0.152;2024-02-23T02:14:00;97854.13;;;19.58;38.84
10176;BME280;18221;38.704;0.152;2024-02-23T02:16:28;97876.00;;;19.50;39.44
10176;BME280;18221;38.704;0.152;2024-02-23T02:18:56;97892.22;;;19.43;39.60
10176;BME280;18221;38.704;0.152;2024-02-23T02:21:24;97895.06;;;19.48;39.45
10176;BME280;18221;38.704;0.152;2024-02-23T02:23:51;97901.81;;;19.76;39.08
10176;BME280;18221;38.704;0.152;2024-02-23T02:26:19;97911.00;;;20.04;38.48
10176;BME280;18221;38.704;0.152;2024-02-23T02:28:47;97910.72;;;19.94;38.94
10176;BME280;18221;38.704;0.152;2024-02-23T02:31:17;97919.97;;;19.98;38.69
10176;BME280;18221;38.704;0.152;2024-02-23T02:33:45;97938.59;;;20.18;38.28
10176;BME280;18221;38.704;0.152;2024-02-23T02:36:12;97930.53;;;20.36;37.68
10176;BME280;18221;38.704;0.152;2024-02-23T02:38:40;97915.25;;;20.30;37.46
10176;BME280;18221;38.704;0.152;2024-02-23T02:41:09;97915.59;;;20.33;37.33
10176;BME280;18221;38.704;0.152;2024-02-23T02:43:37;97912.53;;;20.48;37.33
10176;BME280;18221;38.704;0.152;2024-02-23T02:46:05;97892.13;;;20.52;37.13
10176;BME280;18221;38.704;0.152;2024-02-23T02:48:34;97898.97;;;20.37;36.97
10176;BME280;18221;38.704;0.152;2024-02-23T02:51:02;97852.56;;;19.68;37.40
10176;BME280;18221;38.704;0.152;2024-02-23T02:53:29;97768.09;;;19.27;36.32
10176;BME280;18221;38.704;0.152;2024-02-23T02:55:57;97693.28;;;18.81;35.50
10176;BME280;18221;38.704;0.152;2024-02-23T02:58:25;97686.50;;;18.78;35.16
10176;BME280;18221;38.704;0.152;2024-02-23T03:00:53;97686.59;;;18.90;34.29
10176;BME280;18221;38.704;0.152;2024-02-23T03:03:20;97657.44;;;18.87;33.48
10176;BME280;18221;38.704;0.152;2024-02-23T03:05:50;97687.38;;;18.90;33.71
10176;BME280;18221;38.704;0.152;2024-02-23T03:08:18;97693.00;;;18.71;34.18
10176;BME280;18221;38.704;0.152;2024-02-23T03:10:46;97700.19;;;18.77;33.25
10176;BME280;18221;38.704;0.152;2024-02-23T03:13:15;97684.69;;;18.90;32.46
10176;BME280;18221;38.704;0.152;2024-02-23T03:15:43;97679.56;;;18.89;32.13
10176;BME280;18221;38.704;0.152;2024-02-23T03:18:11;97693.81;;;18.71;32.13
10176;BME280;18221;38.704;0.152;2024-02-23T03:20:41;97695.25;;;18.92;31.67
10176;BME280;18221;38.704;0.152;2024-02-23T03:23:11;97704.59;;;18.71;31.57
10176;BME280;18221;38.704;0.152;2024-02-23T03:25:39;97705.84;;;18.69;31.63
10176;BME280;18221;38.704;0.152;2024-02-23T03:28:07;97722.41;;;18.66;31.82
10176;BME280;18221;38.704;0.152;2024-02-23T03:30:35;97735.38;;;18.93;31.75
10176;BME280;18221;38.704;0.152;2024-02-23T03:33:03;97730.91;;;18.87;32.07
10176;BME280;18221;38.704;0.152;2024-02-23T03:35:36;97727.09;;;18.95;31.93
10176;BME280;18221;38.704;0.152;2024-02-23T03:38:04;97743.66;;;18.92;32.15
10176;BME280;18221;38.704;0.152;2024-02-23T03:40:33;97777.06;;;18.84;32.18
10176;BME280;18221;38.704;0.152;2024-02-23T03:43:02;97785.88;;;18.91;32.28
10176;BME280;18221;38.704;0.152;2024-02-23T03:45:30;97792.69;;;18.94;32.39
10176;BME280;18221;38.704;0.152;2024-02-23T03:47:59;97781.50;;;18.72;32.44
10176;BME280;18221;38.704;0.152;2024-02-23T03:50:27;97799.41;;;18.60;32.09
10176;BME280;18221;38.704;0.152;2024-02-23T03:52:55;97815.88;;;18.70;31.35
10176;BME280;18221;38.704;0.152;2024-02-23T03:55:25;97816.03;;;18.51;30.31
10176;BME280;18221;38.704;0.152;2024-02-23T03:57:55;97833.91;;;18.32;30.35
10176;BME280;18221;38.704;0.152;2024-02-23T04:00:23;97832.59;;;18.41;30.73
10176;BME280;18221;38.704;0.152;2024-02-23T04:02:51;97817.66;;;18.52;31.06
10176;BME280;18221;38.704;0.152;2024-02-23T04:05:19;97829.72;;;18.42;31.01
10176;BME280;18221;38.704;0.152;2024-02-23T04:07:47;97830.13;;;18.08;31.33
10176;BME280;18221;38.704;0.152;2024-02-23T04:10:15;97835.38;;;18.28;30.88
10176;BME280;18221;38.704;0.152;2024-02-23T04:12:47;97816.81;;;18.20;30.51
10176;BME280;18221;38.704;0.152;2024-02-23T04:15:16;97801.94;;;17.86;30.04
10176;BME280;18221;38.704;0.152;2024-02-23T04:17:46;97801.63;;;17.69;29.87
10176;BME280;18221;38.704;0.152;2024-02-23T04:20:14;97784.09;;;17.60;28.66
10176;BME280;18221;38.704;0.152;2024-02-23T04:22:42;97812.00;;;17.53;28.63
10176;BME280;18221;38.704;0.152;2024-02-23T04:25:10;97808.97;;;17.36;28.82
10176;BME280;18221;38.704;0.152;2024-02-23T04:27:38;97803.78;;;17.41;29.10
10176;BME280;18221;38.704;0.152;2024-02-23T04:30:07;97820.91;;;17.53;28.56
10176;BME280;18221;38.704;0.152;2024-02-23T04:32:37;97864.22;;;17.50;28.62
10176;BME280;18221;38.704;0.152;2024-02-23T04:35:05;97841.75;;;17.45;28.86
10176;BME280;18221;38.704;0.152;2024-02-23T04:37:34;97852.88;;;17.42;29.03
10176;BME280;18221;38.704;0.152;2024-02-23T04:40:01;97860.34;;;17.40;28.71
10176;BME280;18221;38.704;0.152;2024-02-23T04:42:30;97856.91;;;17.06;28.70
10176;BME280;18221;38.704;0.152;2024-02-23T04:44:58;97848.63;;;17.08;29.00
10176;BME280;18221;38.704;0.152;2024-02-23T04:47:26;97835.66;;;16.98;27.98
10176;BME280;18221;38.704;0.152;2024-02-23T04:49:55;97847.16;;;17.18;27.49
10176;BME280;18221;38.704;0.152;2024-02-23T04:52:24;97845.16;;;17.07;28.04
10176;BME280;18221;38.704;0.152;2024-02-23T04:54:52;97856.69;;;17.08;27.38
10176;BME280;18221;38.704;0.152;2024-02-23T04:57:20;97812.50;;;17.17;27.47
10176;BME280;18221;38.704;0.152;2024-02-23T04:59:47;97833.59;;;17.00;27.71
10176;BME280;18221;38.704;0.152;2024-02-23T05:02:15;97827.22;;;16.88;27.64
10176;BME280;18221;38.704;0.152;2024-02-23T05:04:43;97801.88;;;16.71;27.63
10176;BME280;18221;38.704;0.152;2024-02-23T05:07:14;97835.25;;;16.75;27.39
10176;BME280;18221;38.704;0.152;2024-02-23T05:09:42;97837.53;;;16.78;27.82
10176;BME280;18221;38.704;0.152;2024-02-23T05:12:09;97844.94;;;16.70;27.54
10176;BME280;18221;38.704;0.152;2024-02-23T05:14:37;97821.25;;;16.73;27.80
10176;BME280;18221;38.704;0.152;2024-02-23T05:17:05;97856.09;;;16.80;27.19
10176;BME280;18221;38.704;0.152;2024-02-23T05:19:33;97852.81;;;16.71;26.96
10176;BME280;18221;38.704;0.152;2024-02-23T05:22:01;97872.78;;;16.75;27.25
10176;BME280;18221;38.704;0.152;2024-02-23T05:24:31;97901.69;;;16.73;26.97
10176;BME280;18221;38.704;0.152;2024-02-23T05:26:59;97881.03;;;16.54;27.00
10176;BME280;18221;38.704;0.152;2024-02-23T05:29:28;97928.47;;;16.60;26.81
10176;BME280;18221;38.704;0.152;2024-02-23T05:31:56;97938.16;;;16.74;26.25
10176;BME280;18221;38.704;0.152;2024-02-23T05:34:24;97929.41;;;16.46;26.16
10176;BME280;18221;38.704;0.152;2024-02-23T05:36:52;97903.25;;;16.41;25.41
10176;BME280;18221;38.704;0.152;2024-02-23T05:39:20;97956.63;;;16.43;24.81
10176;BME280;18221;38.704;0.152;2024-02-23T05:41:49;97956.22;;;16.46;24.92
10176;BME280;18221;38.704;0.152;2024-02-23T05:44:17;97954.00;;;16.56;24.88
10176;BME280;18221;38.704;0.152;2024-02-23T05:46:45;97989.72;;;16.63;25.39
10176;BME280;18221;38.704;0.152;2024-02-23T05:49:13;97984.47;;;16.42;25.18
10176;BME280;18221;38.704;0.152;2024-02-23T05:51:41;98005.03;;;16.35;24.67
10176;BME280;18221;38.704;0.152;2024-02-23T05:54:09;97991.81;;;16.27;25.01
10176;BME280;18221;38.704;0.152;2024-02-23T05:56:37;97987.47;;;16.26;25.06
10176;BME280;18221;38.704;0.152;2024-02-23T05:59:06;98001.50;;;16.28;24.56
10176;BME280;18221;38.704;0.152;2024-02-23T06:01:34;98007.28;;;16.31;24.45
10176;BME280;18221;38.704;0.152;2024-02-23T06:04:02;97999.59;;;16.22;24.34
10176;BME280;18221;38.704;0.152;2024-02-23T06:06:30;97986.47;;;16.33;24.65
10176;BME280;18221;38.704;0.152;2024-02-23T06:08:58;97988.94;;;16.28;24.71
10176;BME280;18221;38.704;0.152;2024-02-23T06:11:26;97993.78;;;16.12;24.58
10176;BME280;18221;38.704;0.152;2024-02-23T06:13:54;97997.94;;;16.14;24.15
10176;BME280;18221;38.704;0.152;2024-02-23T06:16:23;97988.72;;;16.30;24.60
10176;BME280;18221;38.704;0.152;2024-02-23T06:18:51;97960.97;;;15.96;23.66
10176;BME280;18221;38.704;0.152;2024-02-23T06:21:19;97970.16;;;15.81;23.42
10176;BME280;18221;38.704;0.152;2024-02-23T06:23:47;97966.31;;;15.56;22.93
10176;BME280;18221;38.704;0.152;2024-02-23T06:26:15;97979.19;;;15.73;23.50
10176;BME280;18221;38.704;0.152;2024-02-23T06:28:43;97998.38;;;15.77;22.26
10176;BME280;18221;38.704;0.152;2024-02-23T06:31:11;97985.75;;;15.71;22.25
10176;BME280;18221;38.704;0.152;2024-02-23T06:33:40;98020.59;;;15.50;22.40
10176;BME280;18221;38.704;0.152;2024-02-23T06:36:09;98018.72;;;15.71;22.22
10176;BME280;18221;38.704;0.152;2024-02-23T06:38:37;98047.28;;;15.98;22.41
10176;BME280;18221;38.704;0.152;2024-02-23T06:41:04;98066.97;;;15.84;22.60
10176;BME280;18221;38.704;0.152;2024-02-23T06:43:34;98087.66;;;15.97;22.30
10176;BME280;18221;38.704;0.152;2024-02-23T06:46:06;98091.56;;;15.94;21.95
10176;BME280;18221;38.704;0.152;2024-02-23T06:48:34;98111.91;;;15.89;21.77
10176;BME280;18221;38.704;0.152;2024-02-23T06:51:05;98112.75;;;15.89;21.62
10176;BME280;18221;38.704;0.152;2024-02-23T06:53:35;98123.41;;;16.17;21.88
10176;BME280;18221;38.704;0.152;2024-02-23T06:56:04;98118.19;;;16.02;21.00
10176;BME280;18221;38.704;0.152;2024-02-23T06:58:32;98118.94;;;15.90;21.15
10176;BME280;18221;38.704;0.152;2024-02-23T07:01:00;98132.84;;;15.79;20.64
10176;BME280;18221;38.704;0.152;2024-02-23T07:03:29;98121.88;;;16.01;20.84
10176;BME280;18221;38.704;0.152;2024-02-23T07:05:57;98129.06;;;16.01;20.45
10176;BME280;18221;38.704;0.152;2024-02-23T07:08:27;98115.91;;;15.72;20.50
10176;BME280;18221;38.704;0.152;2024-02-23T07:10:54;98089.06;;;15.65;20.94
10176;BME280;18221;38.704;0.152;2024-02-23T07:13:22;98107.63;;;15.67;19.93
10176;BME280;18221;38.704;0.152;2024-02-23T07:15:50;98090.72;;;15.66;20.34
10176;BME280;18221;38.704;0.152;2024-02-23T07:18:18;98091.84;;;15.51;20.14
10176;BME280;18221;38.704;0.152;2024-02-23T07:20:46;98113.50;;;15.41;20.05
10176;BME280;18221;38.704;0.152;2024-02-23T07:23:14;98100.28;;;15.33;19.98
10176;BME280;18221;38.704;0.152;2024-02-23T07:25:45;98116.91;;;15.28;19.85
10176;BME280;18221;38.704;0.152;2024-02-23T07:28:14;98107.66;;;15.31;20.40
10176;BME280;18221;38.704;0.152;2024-02-23T07:30:44;98134.28;;;15.39;20.71
10176;BME280;18221;38.704;0.152;2024-02-23T07:33:12;98138.13;;;15.30;19.95
10176;BME280;18221;38.704;0.152;2024-02-23T07:35:40;98136.72;;;15.34;20.11
10176;BME280;18221;38.704;0.152;2024-02-23T07:38:09;98156.38;;;15.26;20.63
10176;BME280;18221;38.704;0.152;2024-02-23T07:40:36;98174.59;;;15.52;20.15
10176;BME280;18221;38.704;0.152;2024-02-23T07:43:07;98189.84;;;15.37;20.16
10176;BME280;18221;38.704;0.152;2024-02-23T07:45:34;98196.56;;;15.69;20.29
10176;BME280;18221;38.704;0.152;2024-02-23T07:48:01;98217.41;;;15.73;20.25
10176;BME280;18221;38.704;0.152;2024-02-23T07:50:29;98228.13;;;15.94;20.04
10176;BME280;18221;38.704;0.152;2024-02-23T07:52:57;98241.00;;;15.63;19.77
10176;BME280;18221;38.704;0.152;2024-02-23T07:55:25;98244.56;;;15.91;19.90
10176;BME280;18221;38.704;0.152;2024-02-23T07:57:53;98236.97;;;15.74;20.71
10176;BME280;18221;38.704;0.152;2024-02-23T08:00:28;98262.53;;;15.76;20.35
10176;BME280;18221;38.704;0.152;2024-02-23T08:02:56;98269.16;;;15.80;20.09
10176;BME280;18221;38.704;0.152;2024-02-23T08:05:25;98239.06;;;15.57;20.25
10176;BME280;18221;38.704;0.152;2024-02-23T08:07:53;98247.28;;;15.56;19.89
10176;BME280;18221;38.704;0.152;2024-02-23T08:10:20;98256.16;;;15.41;20.28
10176;BME280;18221;38.704;0.152;2024-02-23T08:12:48;98242.06;;;15.48;21.09
10176;BME280;18221;38.704;0.152;2024-02-23T08:15:16;98250.25;;;15.46;20.80
10176;BME280;18221;38.704;0.152;2024-02-23T08:17:46;98262.03;;;15.66;20.89
10176;BME280;18221;38.704;0.152;2024-02-23T08:20:16;98270.81;;;15.81;21.26
10176;BME280;18221;38.704;0.152;2024-02-23T08:22:44;98273.88;;;15.99;21.02
10176;BME280;18221;38.704;0.152;2024-02-23T08:25:12;98285.22;;;16.01;20.52
10176;BME280;18221;38.704;0.152;2024-02-23T08:27:41;98271.78;;;16.16;20.93
10176;BME280;18221;38.704;0.152;2024-02-23T08:30:10;98273.25;;;16.19;20.46
10176;BME280;18221;38.704;0.152;2024-02-23T08:32:38;98279.47;;;16.26;20.88
10176;BME280;18221;38.704;0.152;2024-02-23T08:35:08;98268.75;;;16.26;20.72
10176;BME280;18221;38.704;0.152;2024-02-23T08:37:36;98279.97;;;16.36;20.09
10176;BME280;18221;38.704;0.152;2024-02-23T08:40:06;98270.44;;;16.27;20.71
10176;BME280;18221;38.704;0.152;2024-02-23T08:42:34;98266.94;;;16.05;20.62
10176;BME280;18221;38.704;0.152;2024-02-23T08:45:02;98277.31;;;15.93;20.68
10176;BME280;18221;38.704;0.152;2024-02-23T08:47:30;98265.22;;;15.97;20.90
10176;BME280;18221;38.704;0.152;2024-02-23T08:50:02;98250.78;;;15.98;21.19
10176;BME280;18221;38.704;0.152;2024-02-23T08:52:32;98256.81;;;15.79;20.50
10176;BME280;18221;38.704;0.152;2024-02-23T08:54:59;98274.84;;;16.13;21.01
10176;BME280;18221;38.704;0.152;2024-02-23T08:57:28;98282.78;;;16.28;20.76
10176;BME280;18221;38.704;0.152;2024-02-23T08:59:55;98284.72;;;16.34;20.41
10176;BME280;18221;38.704;0.152;2024-02-23T09:02:25;98284.75;;;16.61;20.78
10176;BME280;18221;38.704;0.152;2024-02-23T09:04:53;98298.63;;;16.50;20.55
10176;BME280;18221;38.704;0.152;2024-02-23T09:07:20;98296.06;;;16.36;20.97
10176;BME280;18221;38.704;0.152;2024-02-23T09:09:50;98296.25;;;16.55;20.94
10176;BME280;18221;38.704;0.152;2024-02-23T09:12:18;98312.13;;;16.85;20.42
10176;BME280;18221;38.704;0.152;2024-02-23T09:14:46;98302.31;;;16.98;20.11
10176;BME280;18221;38.704;0.152;2024-02-23T09:17:14;98295.47;;;16.89;20.27
10176;BME280;18221;38.704;0.152;2024-02-23T09:19:42;98297.22;;;16.76;20.25
10176;BME280;18221;38.704;0.152;2024-02-23T09:22:09;98285.78;;;16.60;20.14
10176;BME280;18221;38.704;0.152;2024-02-23T09:24:39;98286.03;;;16.65;20.61
10176;BME280;18221;38.704;0.152;2024-02-23T09:27:09;98279.09;;;16.78;20.58
10176;BME280;18221;38.704;0.152;2024-02-23T09:29:37;98265.84;;;16.21;20.48
10176;BME280;18221;38.704;0.152;2024-02-23T09:32:06;98256.06;;;16.34;21.18
10176;BME280;18221;38.704;0.152;2024-02-23T09:34:33;98264.03;;;16.28;20.99
10176;BME280;18221;38.704;0.152;2024-02-23T09:37:01;98253.44;;;16.41;21.27
10176;BME280;18221;38.704;0.152;2024-02-23T09:39:29;98254.63;;;16.11;21.71
10176;BME280;18221;38.704;0.152;2024-02-23T09:41:57;98251.63;;;16.20;21.52
10176;BME280;18221;38.704;0.152;2024-02-23T09:44:33;98258.56;;;16.15;21.97
10176;BME280;18221;38.704;0.152;2024-02-23T09:47:02;98264.38;;;16.18;21.88
10176;BME280;18221;38.704;0.152;2024-02-23T09:49:38;98266.56;;;16.36;21.66
10176;BME280;18221;38.704;0.152;2024-02-23T09:52:08;98243.53;;;16.62;21.30
10176;BME280;18221;38.704;0.152;2024-02-23T09:54:37;98262.22;;;16.35;21.36
10176;BME280;18221;38.704;0.152;2024-02-23T09:57:08;98265.56;;;16.37;21.83
10176;BME280;18221;38.704;0.152;2024-02-23T09:59:38;98268.38;;;16.29;21.82
10176;BME280;18221;38.704;0.152;2024-02-23T10:02:08;98269.50;;;16.41;22.03
10176;BME280;18221;38.704;0.152;2024-02-23T10:04:38;98270.53;;;16.40;21.70
10176;BME280;18221;38.704;0.152;2024-02-23T10:07:07;98279.44;;;16.68;21.47
10176;BME280;18221;38.704;0.152;2024-02-23T10:09:35;98271.16;;;16.63;21.52
10176;BME280;18221;38.704;0.152;2024-02-23T10:12:03;98269.38;;;16.49;21.84
10176;BME280;18221;38.704;0.152;2024-02-23T10:14:31;98284.81;;;16.47;21.71
10176;BME280;18221;38.704;0.152;2024-02-23T10:17:00;98287.00;;;16.58;21.68
10176;BME280;18221;38.704;0.152;2024-02-23T10:19:28;98280.78;;;16.85;21.51
10176;BME280;18221;38.704;0.152;2024-02-23T10:21:56;98287.41;;;16.89;21.06
10176;BME280;18221;38.704;0.152;2024-02-23T10:24:24;98276.00;;;16.81;20.88
10176;BME280;18221;38.704;0.152;2024-02-23T10:26:52;98288.34;;;17.09;20.79
10176;BME280;18221;38.704;0.152;2024-02-23T10:29:21;98283.31;;;17.00;20.84
10176;BME280;18221;38.704;0.152;2024-02-23T10:31:51;98289.13;;;16.97;21.01
10176;BME280;18221;38.704;0.152;2024-02-23T10:34:21;98272.78;;;16.92;20.95
10176;BME280;18221;38.704;0.152;2024-02-23T10:36:49;98286.34;;;17.24;20.66
10176;BME280;18221;38.704;0.152;2024-02-23T10:39:18;98273.97;;;17.23;20.38
10176;BME280;18221;38.704;0.152;2024-02-23T10:41:57;98259.69;;;17.16;20.58
10176;BME280;18221;38.704;0.152;2024-02-23T10:44:26;98251.66;;;17.16;20.21
10176;BME280;18221;38.704;0.152;2024-02-23T10:46:56;98264.00;;;17.11;20.49
10176;BME280;18221;38.704;0.152;2024-02-23T10:49:28;98248.00;;;17.31;20.68
10176;BME280;18221;38.704;0.152;2024-02-23T10:51:57;98246.78;;;17.40;20.01
10176;BME280;18221;38.704;0.152;2024-02-23T10:54:27;98243.38;;;17.11;20.19
10176;BME280;18221;38.704;0.152;2024-02-23T10:56:55;98234.31;;;17.12;20.15
10176;BME280;18221;38.704;0.152;2024-02-23T10:59:23;98238.13;;;17.38;20.17
10176;BME280;18221;38.704;0.152;2024-02-23T11:01:53;98238.56;;;17.41;19.97
10176;BME280;18221;38.704;0.152;2024-02-23T11:04:23;98252.28;;;17.72;19.50
10176;BME280;18221;38.704;0.152;2024-02-23T11:06:55;98248.97;;;17.64;19.42
10176;BME280;18221;38.704;0.152;2024-02-23T11:09:25;98242.31;;;17.53;19.19
10176;BME280;18221;38.704;0.152;2024-02-23T11:11:54;98259.91;;;17.62;19.48
10176;BME280;18221;38.704;0.152;2024-02-23T11:14:31;98255.81;;;17.86;19.31
10176;BME280;18221;38.704;0.152;2024-02-23T11:17:00;98253.97;;;17.86;19.85
10176;BME280;18221;38.704;0.152;2024-02-23T11:19:38;98245.28;;;17.84;18.61
10176;BME280;18221;38.704;0.152;2024-02-23T11:22:10;98238.25;;;17.77;18.36
10176;BME280;18221;38.704;0.152;2024-02-23T11:24:43;98259.97;;;18.02;18.41
10176;BME280;18221;38.704;0.152;2024-02-23T11:27:15;98265.56;;;18.20;18.82
10176;BME280;18221;38.704;0.152;2024-02-23T11:29:45;98271.97;;;18.25;18.33
10176;BME280;18221;38.704;0.152;2024-02-23T11:32:14;98263.72;;;18.27;17.82
10176;BME280;18221;38.704;0.152;2024-02-23T11:34:55;98241.81;;;18.30;17.73
10176;BME280;18221;38.704;0.152;2024-02-23T11:37:28;98263.50;;;18.09;17.97
10176;BME280;18221;38.704;0.152;2024-02-23T11:39:57;98252.56;;;18.36;17.92
10176;BME280;18221;38.704;0.152;2024-02-23T11:42:27;98248.47;;;18.54;18.01
10176;BME280;18221;38.704;0.152;2024-02-23T11:44:56;98243.50;;;18.51;17.68
10176;BME280;18221;38.704;0.152;2024-02-23T11:47:25;98255.44;;;18.28;17.87
10176;BME280;18221;38.704;0.152;2024-02-23T11:49:53;98272.63;;;18.40;17.96
10176;BME280;18221;38.704;0.152;2024-02-23T11:52:24;98243.09;;;18.54;17.89
10176;BME280;18221;38.704;0.152;2024-02-23T11:54:52;98259.41;;;18.32;17.67
10176;BME280;18221;38.704;0.152;2024-02-23T11:57:20;98258.75;;;18.43;17.62
10176;BME280;18221;38.704;0.152;2024-02-23T11:59:47;98259.22;;;18.54;17.47
10176;BME280;18221;38.704;0.152;2024-02-23T12:02:15;98269.50;;;18.70;17.33
10176;BME280;18221;38.704;0.152;2024-02-23T12:04:43;98263.09;;;18.84;17.70
10176;BME280;18221;38.704;0.152;2024-02-23T12:07:12;98266.78;;;19.02;17.24
10176;BME280;18221;38.704;0.152;2024-02-23T12:09:45;98272.72;;;19.11;17.06
10176;BME280;18221;38.704;0.152;2024-02-23T12:12:13;98236.94;;;19.04;16.61
10176;BME280;18221;38.704;0.152;2024-02-23T12:14:42;98243.97;;;19.18;15.83
10176;BME280;18221;38.704;0.152;2024-02-23T12:17:10;98237.41;;;18.88;15.85
10176;BME280;18221;38.704;0.152;2024-02-23T12:19:41;98251.72;;;18.75;16.05
10176;BME280;18221;38.704;0.152;2024-02-23T12:22:10;98258.94;;;18.94;15.94
10176;BME280;18221;38.704;0.152;2024-02-23T12:24:40;98238.00;;;19.03;16.45
10176;BME280;18221;38.704;0.152;2024-02-23T12:27:10;98251.19;;;19.18;16.43
10176;BME280;18221;38.704;0.152;2024-02-23T12:29:38;98260.94;;;19.19;16.16
10176;BME280;18221;38.704;0.152;2024-02-23T12:32:06;98257.19;;;19.26;16.06
10176;BME280;18221;38.704;0.152;2024-02-23T12:34:35;98272.47;;;19.39;16.71
10176;BME280;18221;38.704;0.152;2024-02-23T12:37:03;98276.56;;;19.48;16.66
10176;BME280;18221;38.704;0.152;2024-02-23T12:39:31;98255.25;;;19.46;16.34
10176;BME280;18221;38.704;0.152;2024-02-23T12:41:59;98243.47;;;19.47;16.22
10176;BME280;18221;38.704;0.152;2024-02-23T12:44:29;98256.59;;;19.11;15.44
10176;BME280;18221;38.704;0.152;2024-02-23T12:46:57;98250.03;;;18.94;15.97
10176;BME280;18221;38.704;0.152;2024-02-23T12:49:25;98263.91;;;18.97;16.50
10176;BME280;18221;38.704;0.152;2024-02-23T12:51:53;98244.44;;;18.89;16.08
10176;BME280;18221;38.704;0.152;2024-02-23T12:54:20;98255.84;;;18.78;16.21
10176;BME280;18221;38.704;0.152;2024-02-23T12:56:48;98261.81;;;18.99;15.91
10176;BME280;18221;38.704;0.152;2024-02-23T12:59:17;98236.50;;;19.20;15.97
10176;BME280;18221;38.704;0.152;2024-02-23T13:01:46;98235.69;;;19.13;16.27
10176;BME280;18221;38.704;0.152;2024-02-23T13:04:14;98238.56;;;19.18;16.19
10176;BME280;18221;38.704;0.152;2024-02-23T13:06:42;98252.91;;;19.56;16.24
10176;BME280;18221;38.704;0.152;2024-02-23T13:09:10;98251.91;;;19.89;16.63
10176;BME280;18221;38.704;0.152;2024-02-23T13:11:39;98222.38;;;20.00;16.00
10176;BME280;18221;38.704;0.152;2024-02-23T13:14:07;98238.09;;;20.10;15.97
10176;BME280;18221;38.704;0.152;2024-02-23T13:16:35;98233.88;;;20.20;15.82
10176;BME280;18221;38.704;0.152;2024-02-23T13:19:05;98217.50;;;19.91;15.94